Time;durP1;ratioP1;P1;durP2;ratioP2;P2;SDS_P1;SDS_P2;PMS_P1;PMS_P2;Temp;Humidity;BMP_temperature;BMP_pressure;BME280_temperature;BME280_humidity;BME280_pressure;Samples;Min_cycle;Max_cycle;Signal;HPM_P1;HPM_P2
2023/09/15 00:00:32;;;;;;;9.20;6.50;;;;;;;;;;5034821;28;20111;-75
2023/09/15 00:02:58;;;;;;;9.40;6.30;;;;;;;;;;5036948;28;20794;-75
2023/09/15 00:05:23;;;;;;;10.65;7.38;;;;;;;;;;5041149;28;20029;-75
2023/09/15 00:07:49;;;;;;;10.00;6.97;;;;;;;;;;5049016;28;20043;-75
2023/09/15 00:10:14;;;;;;;9.45;7.35;;;;;;;;;;5048642;28;20029;-75
2023/09/15 00:12:40;;;;;;;11.20;7.13;;;;;;;;;;5050169;28;20395;-75
2023/09/15 00:15:08;;;;;;;12.40;7.30;;;;;;;;;;5050780;28;20028;-74
2023/09/15 00:17:38;;;;;;;11.23;7.22;;;;;;;;;;5051195;28;20111;-75
2023/09/15 00:20:21;;;;;;;;;;;;;;;;;;5051113;28;20033;-74
2023/09/15 00:22:49;;;;;;;11.48;7.00;;;;;;;;;;5043911;28;19920;-75
2023/09/15 00:25:19;;;;;;;9.30;6.47;;;;;;;;;;5033315;28;20041;-75
2023/09/15 00:27:45;;;;;;;10.45;6.78;;;;;;;;;;5048985;28;20041;-75
2023/09/15 00:30:11;;;;;;;8.82;6.80;;;;;;;;;;5052827;28;20048;-75
2023/09/15 00:32:37;;;;;;;8.38;7.45;;;;;;;;;;5050597;28;20112;-74
2023/09/15 00:35:02;;;;;;;12.53;7.77;;;;;;;;;;5051754;28;20472;-75
2023/09/15 00:37:27;;;;;;;13.27;7.03;;;;;;;;;;5049109;28;20287;-75
2023/09/15 00:39:52;;;;;;;9.60;7.47;;;;;;;;;;5050419;28;20029;-74
2023/09/15 00:42:19;;;;;;;9.48;7.05;;;;;;;;;;5052029;28;20085;-74
2023/09/15 00:44:45;;;;;;;10.45;7.35;;;;;;;;;;5049466;28;20396;-75
2023/09/15 00:47:10;;;;;;;9.32;7.20;;;;;;;;;;5047662;28;20036;-74
2023/09/15 00:49:36;;;;;;;9.07;6.72;;;;;;;;;;5029704;28;20378;-74
2023/09/15 00:52:02;;;;;;;10.03;7.60;;;;;;;;;;5039292;28;20025;-75
2023/09/15 00:54:28;;;;;;;10.02;7.18;;;;;;;;;;5023745;28;20282;-74
2023/09/15 00:56:53;;;;;;;9.80;7.32;;;;;;;;;;5032313;28;20029;-75
2023/09/15 00:59:18;;;;;;;10.70;7.30;;;;;;;;;;5031982;28;20040;-75
2023/09/15 01:01:47;;;;;;;8.80;7.37;;;;;;;;;;5048395;28;20185;-75
2023/09/15 01:04:12;;;;;;;9.53;7.20;;;;;;;;;;5029160;28;20291;-75
2023/09/15 01:06:38;;;;;;;10.03;7.53;;;;;;;;;;5045013;28;20040;-75
2023/09/15 01:09:05;;;;;;;11.33;7.63;;;;;;;;;;5026404;28;20025;-75
2023/09/15 01:11:31;;;;;;;10.15;7.63;;;;;;;;;;5045899;28;20325;-75
2023/09/15 01:13:56;;;;;;;9.98;7.32;;;;;;;;;;5028809;28;20029;-75
2023/09/15 01:16:33;;;;;;;8.63;7.13;;;;;;;;;;5039685;28;20098;-75
2023/09/15 01:19:18;;;;;;;10.15;7.53;;;;;;;;;;5031111;28;20053;-75
2023/09/15 01:21:49;;;;;;;9.57;7.28;;;;;;;;;;5037879;28;20045;-74
2023/09/15 01:24:23;;;;;;;9.30;6.93;;;;;;;;;;5031395;28;20048;-75
2023/09/15 01:26:59;;;;;;;9.55;7.22;;;;;;;;;;5043349;28;20036;-75
2023/09/15 01:29:24;;;;;;;9.95;7.20;;;;;;;;;;5045445;28;20037;-74
2023/09/15 01:31:50;;;;;;;9.87;7.97;;;;;;;;;;5046788;28;20578;-75
2023/09/15 01:34:16;;;;;;;11.63;7.63;;;;;;;;;;5009250;28;20476;-75
2023/09/15 01:36:42;;;;;;;9.15;6.72;;;;;;;;;;5042813;28;20041;-76
2023/09/15 01:39:08;;;;;;;11.63;7.60;;;;;;;;;;5046532;28;20037;-75
2023/09/15 01:41:33;;;;;;;9.68;7.05;;;;;;;;;;5046276;28;20047;-75
2023/09/15 01:43:58;;;;;;;10.80;8.15;;;;;;;;;;5044020;28;20033;-75
2023/09/15 01:46:24;;;;;;;8.57;7.03;;;;;;;;;;5045066;28;20048;-75
2023/09/15 01:48:56;;;;;;;9.65;7.40;;;;;;;;;;5027822;28;20033;-75
2023/09/15 01:51:21;;;;;;;10.52;7.47;;;;;;;;;;5044668;28;20040;-75
2023/09/15 01:53:46;;;;;;;14.18;7.82;;;;;;;;;;5045999;28;20046;-75
2023/09/15 01:56:14;;;;;;;10.45;7.32;;;;;;;;;;5046602;28;20028;-75
2023/09/15 01:58:39;;;;;;;9.77;7.45;;;;;;;;;;5041801;28;20120;-75
2023/09/15 02:01:05;;;;;;;10.70;7.00;;;;;;;;;;5033584;28;20132;-75
2023/09/15 02:03:30;;;;;;;10.73;7.70;;;;;;;;;;5037537;28;20288;-75
2023/09/15 02:06:00;;;;;;;9.93;7.27;;;;;;;;;;5031345;28;20303;-74
2023/09/15 02:08:26;;;;;;;8.90;7.38;;;;;;;;;;5035466;28;20357;-75
2023/09/15 02:10:51;;;;;;;11.50;8.07;;;;;;;;;;5034225;28;20039;-75
2023/09/15 02:13:16;;;;;;;10.63;7.47;;;;;;;;;;5033212;28;20669;-74
2023/09/15 02:15:41;;;;;;;11.13;7.70;;;;;;;;;;5033234;28;20291;-75
2023/09/15 02:18:06;;;;;;;10.00;7.50;;;;;;;;;;5034534;28;20044;-75
2023/09/15 02:20:32;;;;;;;11.27;7.60;;;;;;;;;;5043014;28;20091;-75
2023/09/15 02:23:03;;;;;;;9.65;7.25;;;;;;;;;;5044100;28;20283;-75
2023/09/15 02:25:28;;;;;;;10.77;7.80;;;;;;;;;;5045831;28;20126;-75
2023/09/15 02:27:53;;;;;;;11.87;7.57;;;;;;;;;;5044063;28;20013;-75
2023/09/15 02:30:19;;;;;;;8.33;7.37;;;;;;;;;;5042547;28;20681;-75
2023/09/15 02:32:44;;;;;;;12.20;8.15;;;;;;;;;;5044150;28;20711;-75
2023/09/15 02:35:09;;;;;;;9.68;7.78;;;;;;;;;;5027544;28;20028;-75
2023/09/15 02:37:34;;;;;;;10.43;7.37;;;;;;;;;;5044850;28;20044;-75
2023/09/15 02:40:00;;;;;;;11.33;7.73;;;;;;;;;;5045357;28;20024;-75
2023/09/15 02:42:26;;;;;;;10.47;7.70;;;;;;;;;;5043205;28;20074;-75
2023/09/15 02:44:51;;;;;;;10.55;7.90;;;;;;;;;;5045729;28;20322;-75
2023/09/15 02:47:16;;;;;;;10.68;8.02;;;;;;;;;;5034767;28;20017;-75
2023/09/15 02:49:41;;;;;;;9.80;7.88;;;;;;;;;;5043371;28;20017;-75
2023/09/15 02:52:07;;;;;;;12.17;7.77;;;;;;;;;;5036171;28;20013;-75
2023/09/15 02:54:32;;;;;;;11.27;7.95;;;;;;;;;;5025946;28;20021;-75
2023/09/15 02:56:57;;;;;;;10.37;7.17;;;;;;;;;;5028528;28;20020;-74
2023/09/15 02:59:22;;;;;;;12.00;8.13;;;;;;;;;;5044488;28;20279;-77
2023/09/15 03:01:50;;;;;;;12.07;7.80;;;;;;;;;;5045603;28;20025;-75
2023/09/15 03:04:16;;;;;;;9.38;7.88;;;;;;;;;;5044049;28;20055;-75
2023/09/15 03:06:41;;;;;;;10.18;7.88;;;;;;;;;;5045627;28;20561;-75
2023/09/15 03:09:07;;;;;;;11.37;7.70;;;;;;;;;;5043782;28;20621;-75
2023/09/15 03:11:32;;;;;;;10.43;7.75;;;;;;;;;;5045082;28;20471;-75
2023/09/15 03:13:57;;;;;;;9.95;8.27;;;;;;;;;;5044615;28;20044;-75
2023/09/15 03:16:26;;;;;;;11.10;8.00;;;;;;;;;;5027364;28;20079;-75
2023/09/15 03:18:51;;;;;;;12.38;7.75;;;;;;;;;;5044657;28;20440;-75
2023/09/15 03:21:16;;;;;;;11.55;8.77;;;;;;;;;;5044260;28;20040;-75
2023/09/15 03:23:41;;;;;;;11.00;7.87;;;;;;;;;;5048397;28;20130;-75
2023/09/15 03:26:07;;;;;;;9.83;7.40;;;;;;;;;;5047729;28;20333;-75
2023/09/15 03:28:32;;;;;;;9.37;7.63;;;;;;;;;;5048917;28;20017;-75
2023/09/15 03:30:58;;;;;;;14.00;8.02;;;;;;;;;;5049128;28;20792;-75
2023/09/15 03:33:23;;;;;;;11.75;7.68;;;;;;;;;;5028984;28;20025;-75
2023/09/15 03:35:48;;;;;;;11.45;7.97;;;;;;;;;;5029368;28;20025;-75
2023/09/15 03:38:13;;;;;;;11.23;8.23;;;;;;;;;;5024460;28;20025;-76
2023/09/15 03:40:39;;;;;;;10.50;7.77;;;;;;;;;;5048551;28;20078;-75
2023/09/15 03:43:04;;;;;;;12.63;8.30;;;;;;;;;;5027935;28;20041;-74
2023/09/15 03:45:29;;;;;;;10.05;7.70;;;;;;;;;;5031805;28;20028;-74
2023/09/15 03:47:54;;;;;;;10.63;7.60;;;;;;;;;;5047433;28;20025;-73
2023/09/15 03:50:21;;;;;;;9.70;7.68;;;;;;;;;;5047836;28;20033;-74
2023/09/15 03:52:47;;;;;;;9.95;7.45;;;;;;;;;;5046973;28;20344;-74
2023/09/15 03:55:12;;;;;;;9.43;6.93;;;;;;;;;;5047431;28;20033;-74
2023/09/15 03:57:37;;;;;;;9.95;6.85;;;;;;;;;;5049287;28;20041;-74
2023/09/15 04:00:04;;;;;;;10.00;6.40;;;;;;;;;;5048907;28;20037;-75
2023/09/15 04:02:29;;;;;;;9.77;6.78;;;;;;;;;;5047566;28;20282;-73
2023/09/15 04:04:55;;;;;;;9.30;6.40;;;;;;;;;;5048355;28;20041;-74
2023/09/15 04:07:20;;;;;;;9.93;6.77;;;;;;;;;;5048838;28;20021;-73
2023/09/15 04:09:45;;;;;;;11.00;6.70;;;;;;;;;;5046450;28;20279;-74
2023/09/15 04:12:10;;;;;;;8.10;6.33;;;;;;;;;;5048361;28;20125;-74
2023/09/15 04:14:36;;;;;;;8.97;6.13;;;;;;;;;;5044437;28;20267;-74
2023/09/15 04:17:04;;;;;;;9.30;6.80;;;;;;;;;;5046797;28;20279;-74
2023/09/15 04:19:29;;;;;;;7.78;5.93;;;;;;;;;;5046861;28;20044;-75
2023/09/15 04:21:54;;;;;;;9.07;6.60;;;;;;;;;;5026709;28;20049;-74
2023/09/15 04:24:19;;;;;;;8.77;6.53;;;;;;;;;;5035733;28;20049;-74
2023/09/15 04:26:45;;;;;;;10.00;6.23;;;;;;;;;;5027217;28;20333;-75
2023/09/15 04:29:10;;;;;;;8.38;5.93;;;;;;;;;;5042089;28;20699;-75
2023/09/15 04:31:37;;;;;;;6.47;5.57;;;;;;;;;;5048068;28;20090;-75
2023/09/15 04:34:02;;;;;;;10.15;6.03;;;;;;;;;;5047268;28;20287;-75
2023/09/15 04:36:28;;;;;;;7.63;5.63;;;;;;;;;;5026282;28;20529;-76
2023/09/15 04:38:53;;;;;;;9.20;5.40;;;;;;;;;;5038261;28;20041;-74
2023/09/15 04:41:18;;;;;;;7.47;5.90;;;;;;;;;;5046446;28;20043;-75
2023/09/15 04:43:43;;;;;;;9.00;6.13;;;;;;;;;;5046701;28;20029;-75
2023/09/15 04:46:09;;;;;;;10.87;6.00;;;;;;;;;;5047953;28;20561;-74
2023/09/15 04:48:34;;;;;;;8.60;5.87;;;;;;;;;;5048234;28;20276;-75
2023/09/15 04:51:00;;;;;;;11.13;6.03;;;;;;;;;;5045408;28;20040;-76
2023/09/15 04:53:25;;;;;;;7.80;5.70;;;;;;;;;;5043798;28;20120;-74
2023/09/15 04:55:50;;;;;;;8.60;5.70;;;;;;;;;;5034594;28;20029;-75
2023/09/15 04:58:16;;;;;;;8.00;5.60;;;;;;;;;;5034482;28;20022;-74
2023/09/15 05:00:41;;;;;;;9.05;5.85;;;;;;;;;;5035594;28;20030;-74
2023/09/15 05:03:08;;;;;;;10.38;6.05;;;;;;;;;;5035317;28;20037;-74
2023/09/15 05:05:33;;;;;;;9.15;5.80;;;;;;;;;;5034783;28;20060;-73
2023/09/15 05:07:58;;;;;;;9.52;5.70;;;;;;;;;;5032477;28;20125;-74
2023/09/15 05:10:24;;;;;;;10.38;5.78;;;;;;;;;;5036262;28;20075;-74
2023/09/15 05:12:49;;;;;;;8.17;5.87;;;;;;;;;;5032878;28;20055;-73
2023/09/15 05:15:14;;;;;;;10.50;5.70;;;;;;;;;;5035902;28;20066;-73
2023/09/15 05:17:40;;;;;;;8.35;5.90;;;;;;;;;;5035186;28;20845;-73
2023/09/15 05:20:05;;;;;;;7.80;5.50;;;;;;;;;;5023438;28;20033;-72
2023/09/15 05:22:30;;;;;;;9.13;6.28;;;;;;;;;;5033374;28;20052;-74
2023/09/15 05:24:56;;;;;;;9.67;6.03;;;;;;;;;;5037794;28;20120;-73
2023/09/15 05:27:21;;;;;;;9.00;5.65;;;;;;;;;;5033665;28;20135;-73
2023/09/15 05:29:46;;;;;;;9.18;6.15;;;;;;;;;;5022539;28;20033;-74
2023/09/15 05:32:11;;;;;;;9.47;5.80;;;;;;;;;;5041172;28;20037;-74
2023/09/15 05:34:37;;;;;;;9.27;6.40;;;;;;;;;;5026701;28;20371;-74
2023/09/15 05:37:03;;;;;;;9.30;6.10;;;;;;;;;;5045768;28;20590;-75
2023/09/15 05:39:28;;;;;;;10.00;6.55;;;;;;;;;;5047142;28;20044;-76
2023/09/15 05:41:53;;;;;;;9.55;6.68;;;;;;;;;;5041079;28;20029;-75
2023/09/15 05:44:19;;;;;;;8.70;6.50;;;;;;;;;;5020769;28;20196;-75
2023/09/15 05:46:44;;;;;;;9.15;6.47;;;;;;;;;;5032632;28;20072;-76
2023/09/15 05:49:09;;;;;;;10.10;7.03;;;;;;;;;;5032579;28;20078;-74
2023/09/15 05:51:34;;;;;;;9.30;6.70;;;;;;;;;;5034764;28;20034;-73
2023/09/15 05:54:00;;;;;;;9.90;6.93;;;;;;;;;;5034393;28;20033;-74
2023/09/15 05:56:25;;;;;;;9.67;7.70;;;;;;;;;;5037647;28;20052;-74
2023/09/15 05:58:51;;;;;;;8.82;6.97;;;;;;;;;;5033440;28;20037;-73
2023/09/15 06:01:17;;;;;;;10.47;7.07;;;;;;;;;;5031743;28;20041;-74
2023/09/15 06:03:43;;;;;;;10.13;6.90;;;;;;;;;;5036256;28;20051;-73
2023/09/15 06:06:08;;;;;;;9.98;7.55;;;;;;;;;;5033820;28;20264;-76
2023/09/15 06:08:33;;;;;;;10.80;7.30;;;;;;;;;;5036867;28;20025;-73
2023/09/15 06:11:00;;;;;;;8.13;6.73;;;;;;;;;;5031784;28;20056;-74
2023/09/15 06:13:25;;;;;;;10.02;7.00;;;;;;;;;;5032361;28;20563;-75
2023/09/15 06:15:51;;;;;;;10.13;7.10;;;;;;;;;;5036678;28;20048;-74
2023/09/15 06:18:16;;;;;;;11.52;7.53;;;;;;;;;;5019668;28;20330;-74
2023/09/15 06:20:42;;;;;;;12.10;8.13;;;;;;;;;;5020490;28;20044;-74
2023/09/15 06:23:07;;;;;;;10.93;6.95;;;;;;;;;;5019959;28;20042;-75
2023/09/15 06:25:32;;;;;;;10.20;6.80;;;;;;;;;;5031917;28;20056;-74
2023/09/15 06:27:59;;;;;;;11.30;7.65;;;;;;;;;;5014356;28;20384;-76
2023/09/15 06:30:25;;;;;;;8.95;6.97;;;;;;;;;;5036782;28;20037;-75
2023/09/15 06:32:50;;;;;;;10.77;7.38;;;;;;;;;;5017557;28;20032;-75
2023/09/15 06:35:15;;;;;;;9.20;6.88;;;;;;;;;;5020032;28;20052;-75
2023/09/15 06:37:41;;;;;;;9.00;6.82;;;;;;;;;;5032262;28;20037;-75
2023/09/15 06:40:07;;;;;;;10.27;7.05;;;;;;;;;;5035056;28;20040;-75
2023/09/15 06:42:32;;;;;;;9.70;6.85;;;;;;;;;;5036535;28;20041;-79
2023/09/15 06:44:58;;;;;;;9.45;6.88;;;;;;;;;;5032825;28;20048;-78
2023/09/15 06:47:23;;;;;;;11.00;6.72;;;;;;;;;;5034327;28;20029;-80
2023/09/15 06:49:48;;;;;;;10.50;6.88;;;;;;;;;;5034196;28;20022;-80
2023/09/15 06:52:13;;;;;;;8.93;6.90;;;;;;;;;;5019458;28;20033;-74
2023/09/15 06:54:38;;;;;;;10.40;7.17;;;;;;;;;;5036741;28;20040;-77
2023/09/15 06:57:04;;;;;;;9.37;6.47;;;;;;;;;;5035000;28;20306;-74
2023/09/15 06:59:29;;;;;;;7.57;6.38;;;;;;;;;;5040502;28;20346;-73
2023/09/15 07:01:54;;;;;;;9.18;6.32;;;;;;;;;;5040421;28;20041;-72
2023/09/15 07:04:19;;;;;;;8.97;6.50;;;;;;;;;;5023702;28;20601;-75
2023/09/15 07:06:45;;;;;;;11.83;7.00;;;;;;;;;;5043337;28;20291;-76
2023/09/15 07:09:10;;;;;;;9.77;6.80;;;;;;;;;;5034945;28;20055;-73
2023/09/15 07:11:36;;;;;;;10.15;6.82;;;;;;;;;;5037272;28;20284;-74
2023/09/15 07:14:01;;;;;;;11.60;7.22;;;;;;;;;;5034444;28;20048;-75
2023/09/15 07:16:26;;;;;;;9.07;6.47;;;;;;;;;;5037380;28;20080;-75
2023/09/15 07:18:52;;;;;;;9.63;6.57;;;;;;;;;;5033985;28;20033;-75
2023/09/15 07:21:17;;;;;;;11.05;6.70;;;;;;;;;;5022983;28;20033;-75
2023/09/15 07:23:43;;;;;;;12.05;6.75;;;;;;;;;;5033278;28;20029;-74
2023/09/15 07:26:08;;;;;;;11.67;6.47;;;;;;;;;;5035139;28;20045;-75
2023/09/15 07:28:33;;;;;;;10.43;6.55;;;;;;;;;;5040706;28;20185;-74
2023/09/15 07:31:02;;;;;;;10.40;6.33;;;;;;;;;;5036845;28;20037;-73
2023/09/15 07:33:28;;;;;;;8.77;6.72;;;;;;;;;;5014902;28;20300;-73
2023/09/15 07:36:03;;;;;;;9.43;7.07;;;;;;;;;;5033646;28;20041;-74
2023/09/15 07:38:29;;;;;;;8.65;6.53;;;;;;;;;;5034026;28;20762;-74
2023/09/15 07:40:54;;;;;;;9.68;6.03;;;;;;;;;;5034808;28;20041;-75
2023/09/15 07:43:20;;;;;;;8.48;6.45;;;;;;;;;;5039598;28;20515;-77
2023/09/15 07:45:45;;;;;;;9.00;6.60;;;;;;;;;;5034092;28;20049;-75
2023/09/15 07:48:10;;;;;;;9.70;6.18;;;;;;;;;;5034378;28;20045;-75
2023/09/15 07:50:35;;;;;;;9.30;6.50;;;;;;;;;;5036534;28;20025;-73
2023/09/15 07:53:01;;;;;;;7.88;6.07;;;;;;;;;;5034502;28;20310;-75
2023/09/15 07:55:26;;;;;;;12.70;7.00;;;;;;;;;;5039407;28;20857;-75
2023/09/15 07:57:51;;;;;;;11.98;7.00;;;;;;;;;;5039792;28;20554;-76
2023/09/15 08:00:17;;;;;;;9.23;6.70;;;;;;;;;;5017213;28;20508;-76
2023/09/15 08:02:42;;;;;;;9.85;7.07;;;;;;;;;;5032531;28;20295;-76
2023/09/15 08:05:07;;;;;;;10.63;7.07;;;;;;;;;;5039767;28;20048;-76
2023/09/15 08:07:32;;;;;;;9.18;6.72;;;;;;;;;;5039660;28;20374;-74
2023/09/15 08:09:58;;;;;;;10.53;6.33;;;;;;;;;;5036601;28;20045;-76
2023/09/15 08:12:24;;;;;;;12.02;7.10;;;;;;;;;;5038773;28;20044;-76
2023/09/15 08:14:49;;;;;;;8.70;7.07;;;;;;;;;;5032571;28;20037;-77
2023/09/15 08:17:15;;;;;;;9.00;7.00;;;;;;;;;;5015632;28;20306;-76
2023/09/15 08:19:40;;;;;;;11.23;7.10;;;;;;;;;;5019107;28;20524;-76
2023/09/15 08:22:05;;;;;;;8.45;6.45;;;;;;;;;;5039323;28;20048;-76
2023/09/15 08:24:30;;;;;;;9.17;6.67;;;;;;;;;;5039720;28;20045;-76
2023/09/15 08:26:56;;;;;;;8.98;6.55;;;;;;;;;;5017503;28;20049;-78
2023/09/15 08:29:21;;;;;;;11.23;6.93;;;;;;;;;;5040497;28;20040;-78
2023/09/15 08:31:46;;;;;;;8.67;6.50;;;;;;;;;;5038071;28;20040;-79
2023/09/15 08:34:12;;;;;;;8.70;7.00;;;;;;;;;;5034976;28;20041;-76
2023/09/15 08:36:37;;;;;;;11.85;7.30;;;;;;;;;;5038652;28;20049;-76
2023/09/15 08:39:03;;;;;;;10.27;6.47;;;;;;;;;;5022518;28;20518;-78
2023/09/15 08:41:31;;;;;;;8.77;6.60;;;;;;;;;;5019956;28;20049;-73
2023/09/15 08:43:56;;;;;;;10.10;6.82;;;;;;;;;;5034277;28;20037;-74
2023/09/15 08:46:22;;;;;;;8.10;6.47;;;;;;;;;;5039119;28;20044;-73
2023/09/15 08:48:49;;;;;;;8.93;6.30;;;;;;;;;;5034052;28;20409;-73
2023/09/15 08:51:14;;;;;;;8.65;7.18;;;;;;;;;;5033680;28;20091;-75
2023/09/15 08:53:41;;;;;;;11.30;7.18;;;;;;;;;;5036582;28;20657;-78
2023/09/15 08:56:06;;;;;;;10.43;7.50;;;;;;;;;;5016557;28;20475;-76
2023/09/15 08:58:32;;;;;;;10.95;7.22;;;;;;;;;;5037840;28;20067;-75
2023/09/15 09:00:58;;;;;;;10.68;7.18;;;;;;;;;;5035453;28;20025;-80
2023/09/15 09:03:23;;;;;;;10.25;7.00;;;;;;;;;;5040771;28;20056;-72
2023/09/15 09:05:48;;;;;;;10.80;6.60;;;;;;;;;;5038667;28;20423;-73
2023/09/15 09:08:14;;;;;;;10.93;6.87;;;;;;;;;;5035875;28;20292;-72
2023/09/15 09:10:39;;;;;;;8.47;6.50;;;;;;;;;;5033083;28;20062;-75
2023/09/15 09:13:04;;;;;;;8.37;6.53;;;;;;;;;;5030766;28;20141;-75
2023/09/15 09:15:31;;;;;;;11.35;6.85;;;;;;;;;;5040805;28;21021;-75
2023/09/15 09:17:56;;;;;;;10.50;6.78;;;;;;;;;;5040136;28;20037;-76
2023/09/15 09:20:25;;;;;;;11.00;7.33;;;;;;;;;;5042414;28;20052;-83
2023/09/15 09:22:50;;;;;;;11.35;7.32;;;;;;;;;;5019039;28;20495;-79
2023/09/15 09:25:24;;;;;;;12.07;6.88;;;;;;;;;;5041001;28;20514;-80
2023/09/15 09:27:49;;;;;;;11.30;7.07;;;;;;;;;;5033339;28;20033;-78
2023/09/15 09:30:14;;;;;;;14.73;7.37;;;;;;;;;;5040067;28;20037;-77
2023/09/15 09:32:39;;;;;;;10.57;7.00;;;;;;;;;;5022884;28;20041;-75
2023/09/15 09:35:04;;;;;;;9.90;7.50;;;;;;;;;;5040312;28;20059;-81
2023/09/15 09:37:30;;;;;;;12.33;7.17;;;;;;;;;;5019064;28;20033;-82
2023/09/15 09:39:55;;;;;;;12.40;8.10;;;;;;;;;;5023620;28;20302;-84
2023/09/15 09:42:24;;;;;;;11.98;7.28;;;;;;;;;;5021733;28;20849;-86
2023/09/15 09:44:50;;;;;;;10.02;7.25;;;;;;;;;;5016174;28;20094;-86
2023/09/15 09:47:16;;;;;;;10.23;7.25;;;;;;;;;;5036624;28;20033;-87
2023/09/15 09:49:41;;;;;;;8.50;7.57;;;;;;;;;;5033647;28;20055;-77
2023/09/15 09:52:06;;;;;;;11.07;7.30;;;;;;;;;;5033293;28;20295;-75
2023/09/15 09:54:33;;;;;;;10.73;7.93;;;;;;;;;;5037439;28;20036;-71
2023/09/15 09:56:58;;;;;;;9.48;6.97;;;;;;;;;;5021595;28;20291;-74
2023/09/15 09:59:24;;;;;;;10.83;7.47;;;;;;;;;;5038327;28;20055;-74
2023/09/15 10:01:49;;;;;;;9.63;7.63;;;;;;;;;;5021086;28;20314;-72
2023/09/15 10:04:14;;;;;;;9.17;7.20;;;;;;;;;;5034920;28;20290;-75
2023/09/15 10:06:40;;;;;;;9.40;7.15;;;;;;;;;;5035976;28;20919;-75
2023/09/15 10:09:05;;;;;;;10.02;7.18;;;;;;;;;;5039049;28;20028;-77
2023/09/15 10:11:31;;;;;;;9.60;7.50;;;;;;;;;;5031113;28;20068;-78
2023/09/15 10:13:57;;;;;;;9.02;6.78;;;;;;;;;;5037637;28;20082;-76
2023/09/15 10:16:22;;;;;;;9.83;6.67;;;;;;;;;;5035405;28;20175;-76
2023/09/15 10:18:47;;;;;;;10.30;6.75;;;;;;;;;;5032183;28;20063;-76
2023/09/15 10:21:12;;;;;;;9.60;6.40;;;;;;;;;;5038329;28;20087;-77
2023/09/15 10:23:38;;;;;;;7.20;6.27;;;;;;;;;;5032883;28;20288;-82
2023/09/15 10:26:06;;;;;;;11.23;6.90;;;;;;;;;;5020086;28;20044;-76
2023/09/15 10:28:32;;;;;;;12.00;6.85;;;;;;;;;;5031579;28;20313;-76
2023/09/15 10:30:58;;;;;;;13.60;6.88;;;;;;;;;;5037728;28;20045;-76
2023/09/15 10:33:26;;;;;;;9.77;7.32;;;;;;;;;;5017069;28;20028;-77
2023/09/15 10:35:52;;;;;;;9.63;7.05;;;;;;;;;;5030205;28;22025;-76
2023/09/15 10:38:27;;;;;;;10.57;7.50;;;;;;;;;;5036352;28;20116;-76
2023/09/15 10:40:53;;;;;;;8.70;6.88;;;;;;;;;;5015065;28;20068;-76
2023/09/15 10:43:19;;;;;;;10.48;7.03;;;;;;;;;;5033134;28;20013;-76
2023/09/15 10:46:02;;;;;;;10.83;6.20;;;;;;;;;;5036632;28;20040;-75
2023/09/15 10:48:37;;;;;;;9.70;6.38;;;;;;;;;;5016354;28;20366;-75
2023/09/15 10:51:08;;;;;;;9.52;6.32;;;;;;;;;;5034191;28;20029;-75
2023/09/15 10:53:46;;;;;;;7.93;6.63;;;;;;;;;;5017942;28;20099;-75
2023/09/15 10:56:11;;;;;;;10.23;7.03;;;;;;;;;;5040569;28;20510;-75
2023/09/15 10:58:37;;;;;;;9.23;6.68;;;;;;;;;;5034970;28;20053;-75
2023/09/15 11:01:02;;;;;;;8.73;6.57;;;;;;;;;;5037897;28;20112;-75
2023/09/15 11:03:27;;;;;;;10.02;7.13;;;;;;;;;;5042190;28;20282;-76
2023/09/15 11:05:53;;;;;;;8.60;6.80;;;;;;;;;;5038093;28;20408;-76
2023/09/15 11:08:18;;;;;;;9.17;7.07;;;;;;;;;;5033690;28;20291;-75
2023/09/15 11:10:43;;;;;;;9.13;6.53;;;;;;;;;;5040121;28;20029;-75
2023/09/15 11:13:09;;;;;;;8.52;6.50;;;;;;;;;;5042300;28;20032;-74
2023/09/15 11:15:34;;;;;;;10.18;6.72;;;;;;;;;;5019839;28;20036;-75
2023/09/15 11:18:00;;;;;;;10.23;6.83;;;;;;;;;;5022971;28;20025;-76
2023/09/15 11:20:25;;;;;;;8.75;6.82;;;;;;;;;;5036976;28;20288;-73
2023/09/15 11:22:54;;;;;;;9.77;7.27;;;;;;;;;;5044549;28;20190;-76
2023/09/15 11:25:19;;;;;;;8.50;7.30;;;;;;;;;;5042208;28;20080;-76
2023/09/15 11:27:48;;;;;;;10.25;7.32;;;;;;;;;;5042065;28;20041;-75
2023/09/15 11:30:14;;;;;;;11.35;7.63;;;;;;;;;;5038016;28;20052;-75
2023/09/15 11:32:39;;;;;;;11.45;7.97;;;;;;;;;;5043921;28;20037;-76
2023/09/15 11:35:05;;;;;;;12.77;8.30;;;;;;;;;;5043642;28;20043;-76
2023/09/15 11:37:33;;;;;;;10.23;7.53;;;;;;;;;;5044032;28;20287;-76
2023/09/15 11:39:58;;;;;;;8.85;7.60;;;;;;;;;;5043020;28;20041;-75
2023/09/15 11:42:24;;;;;;;9.60;7.63;;;;;;;;;;5042741;28;20037;-76
2023/09/15 11:44:51;;;;;;;9.52;7.88;;;;;;;;;;5046196;28;20045;-75
2023/09/15 11:47:16;;;;;;;10.02;7.43;;;;;;;;;;5045892;28;20047;-76
2023/09/15 11:49:41;;;;;;;9.70;7.65;;;;;;;;;;5028052;28;20041;-76
2023/09/15 11:52:06;;;;;;;10.50;7.60;;;;;;;;;;5029104;28;20045;-75
2023/09/15 11:54:32;;;;;;;11.40;8.30;;;;;;;;;;5030621;28;20102;-76
2023/09/15 11:56:57;;;;;;;11.63;8.83;;;;;;;;;;5047649;28;20041;-76
2023/09/15 11:59:22;;;;;;;11.18;8.70;;;;;;;;;;5047101;28;20037;-76
2023/09/15 12:01:48;;;;;;;11.20;8.27;;;;;;;;;;5018222;28;20116;-76
2023/09/15 12:04:13;;;;;;;10.48;8.25;;;;;;;;;;5040761;28;20433;-76
2023/09/15 12:06:40;;;;;;;12.57;8.20;;;;;;;;;;5039797;28;20123;-76
2023/09/15 12:09:05;;;;;;;13.35;9.38;;;;;;;;;;5048638;28;20682;-76
2023/09/15 12:11:31;;;;;;;10.52;8.48;;;;;;;;;;5047295;28;20033;-76
2023/09/15 12:13:58;;;;;;;11.73;8.87;;;;;;;;;;5046965;28;20029;-77
2023/09/15 12:16:27;;;;;;;11.40;8.95;;;;;;;;;;5046379;28;20291;-76
2023/09/15 12:18:52;;;;;;;10.80;8.07;;;;;;;;;;5037131;28;20423;-76
2023/09/15 12:21:24;;;;;;;10.10;8.15;;;;;;;;;;5027267;28;20029;-77
2023/09/15 12:23:51;;;;;;;11.80;9.20;;;;;;;;;;5040271;28;20695;-77
2023/09/15 12:26:16;;;;;;;12.90;8.98;;;;;;;;;;5047444;28;20029;-77
2023/09/15 12:28:42;;;;;;;10.52;8.30;;;;;;;;;;5043461;28;20408;-76
2023/09/15 12:31:08;;;;;;;12.82;8.90;;;;;;;;;;5044257;28;20028;-76
2023/09/15 12:33:33;;;;;;;12.27;9.37;;;;;;;;;;5037036;28;20037;-77
2023/09/15 12:36:01;;;;;;;12.23;9.40;;;;;;;;;;5048059;28;20060;-76
2023/09/15 12:38:26;;;;;;;12.10;9.13;;;;;;;;;;5028967;28;20838;-76
2023/09/15 12:40:51;;;;;;;12.00;8.60;;;;;;;;;;5031984;28;20033;-76
2023/09/15 12:43:17;;;;;;;11.25;8.20;;;;;;;;;;5044618;28;20037;-75
2023/09/15 12:45:42;;;;;;;11.73;8.13;;;;;;;;;;5046053;28;20656;-75
2023/09/15 12:48:09;;;;;;;12.00;8.43;;;;;;;;;;5046093;28;20284;-75
2023/09/15 12:50:34;;;;;;;11.73;8.10;;;;;;;;;;5046014;28;20344;-75
2023/09/15 12:52:59;;;;;;;11.98;8.48;;;;;;;;;;5040352;28;20634;-75
2023/09/15 12:55:24;;;;;;;11.77;8.33;;;;;;;;;;5047064;28;20048;-74
2023/09/15 12:57:50;;;;;;;11.35;7.93;;;;;;;;;;5046618;28;20724;-75
2023/09/15 13:00:15;;;;;;;12.50;8.50;;;;;;;;;;5048168;28;20037;-75
2023/09/15 13:02:41;;;;;;;11.95;8.70;;;;;;;;;;5046287;28;20047;-75
2023/09/15 13:05:07;;;;;;;11.20;8.30;;;;;;;;;;5047698;28;20044;-75
2023/09/15 13:07:32;;;;;;;9.73;8.13;;;;;;;;;;5046632;28;20045;-75
2023/09/15 13:09:57;;;;;;;10.47;7.63;;;;;;;;;;5043222;28;20029;-75
2023/09/15 13:12:22;;;;;;;12.70;8.33;;;;;;;;;;5038596;28;20295;-74
2023/09/15 13:14:48;;;;;;;11.17;8.37;;;;;;;;;;5046707;28;20044;-75
2023/09/15 13:17:13;;;;;;;10.73;8.70;;;;;;;;;;5029596;28;20298;-75
2023/09/15 13:19:38;;;;;;;11.13;8.60;;;;;;;;;;5029870;28;20072;-76
2023/09/15 13:22:03;;;;;;;11.40;8.40;;;;;;;;;;5046777;28;20049;-75
2023/09/15 13:24:29;;;;;;;10.98;8.38;;;;;;;;;;5047813;28;20045;-75
2023/09/15 13:26:54;;;;;;;11.82;7.93;;;;;;;;;;5055289;28;20037;-75
2023/09/15 13:29:19;;;;;;;11.50;8.48;;;;;;;;;;5048997;28;20048;-75
2023/09/15 13:31:44;;;;;;;9.97;8.10;;;;;;;;;;5046445;28;20069;-75
2023/09/15 13:34:10;;;;;;;10.97;8.43;;;;;;;;;;5047252;28;20048;-75
2023/09/15 13:36:35;;;;;;;10.85;8.85;;;;;;;;;;5046542;28;20041;-76
2023/09/15 13:39:00;;;;;;;11.50;8.33;;;;;;;;;;5045977;28;20067;-75
2023/09/15 13:41:26;;;;;;;10.10;8.30;;;;;;;;;;5044381;28;20809;-75
2023/09/15 13:43:51;;;;;;;10.60;8.43;;;;;;;;;;5043395;28;20386;-75
2023/09/15 13:46:16;;;;;;;11.20;8.20;;;;;;;;;;5045639;28;20136;-75
2023/09/15 13:48:42;;;;;;;10.03;8.20;;;;;;;;;;5043849;28;20130;-75
2023/09/15 13:51:07;;;;;;;11.17;8.70;;;;;;;;;;5046591;28;20290;-75
2023/09/15 13:53:35;;;;;;;14.83;8.73;;;;;;;;;;5045459;28;20315;-76
2023/09/15 13:56:01;;;;;;;11.98;8.75;;;;;;;;;;5044278;28;20427;-76
2023/09/15 13:58:26;;;;;;;11.88;8.98;;;;;;;;;;5044877;28;20033;-76
2023/09/15 14:00:58;;;;;;;13.57;9.63;;;;;;;;;;5042024;28;20039;-76
2023/09/15 14:03:23;;;;;;;12.20;9.20;;;;;;;;;;5025476;28;20056;-76
2023/09/15 14:05:49;;;;;;;11.18;8.75;;;;;;;;;;5040177;28;20520;-76
2023/09/15 14:08:14;;;;;;;12.68;8.82;;;;;;;;;;5044477;28;20033;-76
2023/09/15 14:10:39;;;;;;;13.10;8.90;;;;;;;;;;5029263;28;20037;-76
2023/09/15 14:13:05;;;;;;;12.83;8.37;;;;;;;;;;5026576;28;20034;-76
2023/09/15 14:15:30;;;;;;;11.67;9.03;;;;;;;;;;5043867;28;20099;-76
2023/09/15 14:17:55;;;;;;;12.77;9.77;;;;;;;;;;5044308;28;20041;-76
2023/09/15 14:20:20;;;;;;;12.40;8.90;;;;;;;;;;5046619;28;20847;-76
2023/09/15 14:22:46;;;;;;;14.07;9.83;;;;;;;;;;5046243;28;20045;-76
2023/09/15 14:25:11;;;;;;;12.07;9.23;;;;;;;;;;5046115;28;20337;-76
2023/09/15 14:27:36;;;;;;;13.57;9.60;;;;;;;;;;5027873;28;20123;-77